Volga-4011 — UBNJ — position and weather

sailwx.info

Track history (hours):
 
Tides and Currents Weather Stations Pressure Air Temp Water Temp Dewpoint Dewpoint Depression Visibility Wind Speed Wind Dir Waves Ship Positions

Volga-4011

Last reported at 2014-May-04 10:20 UTC. Time now 2014-Jul-30 01:00 UTC.
Position N 35°03' E 129°12'.
Warning: this ship's position is months out of date.

Length 140 m; draft 3.6 m.

Type: Cargo ship. MMSI: 273358200.

Date/timePositionNaut miles runAvg speedWind from/ knotsBaromVisibWave heightAir tempDewpointWater temp
2014-May-04 10:20N 35°03' E 129°12'64 4.0
2014-May-03 18:33N 34°17' E 128°18'8 7.6
2014-May-03 17:29N 34°11' E 128°11'7 7.6
2014-May-03 16:33N 34°07' E 128°04'312 7.1
2014-May-01 20:33N 31°07' E 123°02'10 9.7
2014-May-01 19:31N 31°02' E 122°52'21 9.5
2014-May-01 17:19N 30°60' E 122°27'7 8.5
2014-May-01 16:29N 31°02' E 122°20'8 7.3
2014-May-01 15:27N 31°03' E 122°11'5 5.6
2014-May-01 14:29N 31°04' E 122°05'7 6.9
2014-May-01 13:30N 31°07' E 121°57'2311.6
2014-May-01 11:30N 31°22' E 121°37'1010.5
2014-May-01 10:33N 31°28' E 121°27'1310.6
2014-May-01 09:22N 31°36' E 121°17'3 0.3
2014-Apr-30 23:27N 31°38' E 121°14'0 0.0
2014-Apr-30 20:17N 31°38' E 121°14'1 0.1
2014-Apr-30 10:31N 31°39' E 121°13'1 0.4
2014-Apr-30 09:14N 31°39' E 121°14'0 0.1
2014-Apr-30 07:27N 31°39' E 121°14'0 0.0
2014-Apr-29 20:28N 31°39' E 121°14'0 0.1
2014-Apr-29 19:32N 31°39' E 121°14'0 0.0
2014-Apr-29 16:25N 31°39' E 121°14'0 0.0
2014-Apr-29 15:19N 31°39' E 121°14'0 0.0
2014-Apr-29 07:25N 31°39' E 121°14'0 0.0
2014-Apr-29 04:21N 31°39' E 121°14'0 0.0
2014-Apr-28 23:12N 31°39' E 121°14'0 0.0
2014-Apr-28 19:09N 31°39' E 121°14'0 0.1
2014-Apr-28 18:09N 31°39' E 121°14'0 0.0
2014-Apr-28 17:28N 31°39' E 121°14'0 0.0
2014-Apr-28 08:04N 31°39' E 121°14'0 0.0
2014-Apr-27 05:16N 31°39' E 121°14'0 0.0
2014-Apr-26 17:30N 31°39' E 121°14'0 0.0
2014-Apr-26 15:30N 31°39' E 121°14'0 0.0
2014-Apr-26 05:19N 31°39' E 121°14'0 0.0
2014-Apr-26 02:27N 31°39' E 121°14'0 0.0
2014-Apr-26 01:22N 31°39' E 121°14'0 0.0
2014-Apr-26 00:16N 31°39' E 121°14'0 0.2
2014-Apr-25 23:05N 31°39' E 121°14'0 0.0
2014-Apr-25 18:14N 31°39' E 121°14'0 0.2
2014-Apr-25 17:33N 31°39' E 121°14'0 0.0
2014-Apr-25 11:25N 31°39' E 121°14'0 0.0
2014-Apr-25 05:29N 31°39' E 121°14'0 0.0
2014-Apr-25 02:25N 31°39' E 121°14'0 0.0
2014-Apr-24 23:15N 31°39' E 121°14'0 0.0
2014-Apr-24 17:07N 31°39' E 121°14'0 0.2
2014-Apr-24 16:25N 31°39' E 121°14'0 0.0
2014-Apr-24 15:20N 31°39' E 121°14'0 0.0
2014-Apr-24 14:33N 31°39' E 121°14'0 0.0
2014-Apr-24 13:04N 31°39' E 121°14'0 0.0
2014-Apr-24 12:10N 31°39' E 121°14'0 0.0
2014-Apr-24 11:23N 31°39' E 121°14'  
Track history (hours):
 
Tides and Currents Weather Stations Pressure Air Temp Water Temp Dewpoint Dewpoint Depression Visibility Wind Speed Wind Dir Waves Ship Positions

Volga-4011

Last reported at 2014-May-04 10:20 UTC. Time now 2014-Jul-30 01:00 UTC.
Position N 35°03' E 129°12'.
Warning: this ship's position is months out of date.

Length 140 m; draft 3.6 m.

Type: Cargo ship. MMSI: 273358200.

Date/timePositionNaut miles runAvg speedWind from/ knotsBaromVisibWave heightAir tempDewpointWater temp
2014-May-04 10:20N 35°03' E 129°12'64 4.0
2014-May-03 18:33N 34°17' E 128°18'8 7.6
2014-May-03 17:29N 34°11' E 128°11'7 7.6
2014-May-03 16:33N 34°07' E 128°04'312 7.1
2014-May-01 20:33N 31°07' E 123°02'10 9.7
2014-May-01 19:31N 31°02' E 122°52'21 9.5
2014-May-01 17:19N 30°60' E 122°27'7 8.5
2014-May-01 16:29N 31°02' E 122°20'8 7.3
2014-May-01 15:27N 31°03' E 122°11'5 5.6
2014-May-01 14:29N 31°04' E 122°05'7 6.9
2014-May-01 13:30N 31°07' E 121°57'2311.6
2014-May-01 11:30N 31°22' E 121°37'1010.5
2014-May-01 10:33N 31°28' E 121°27'1310.6
2014-May-01 09:22N 31°36' E 121°17'3 0.3
2014-Apr-30 23:27N 31°38' E 121°14'0 0.0
2014-Apr-30 20:17N 31°38' E 121°14'1 0.1
2014-Apr-30 10:31N 31°39' E 121°13'1 0.4
2014-Apr-30 09:14N 31°39' E 121°14'0 0.1
2014-Apr-30 07:27N 31°39' E 121°14'0 0.0
2014-Apr-29 20:28N 31°39' E 121°14'0 0.1
2014-Apr-29 19:32N 31°39' E 121°14'0 0.0
2014-Apr-29 16:25N 31°39' E 121°14'0 0.0
2014-Apr-29 15:19N 31°39' E 121°14'0 0.0
2014-Apr-29 07:25N 31°39' E 121°14'0 0.0
2014-Apr-29 04:21N 31°39' E 121°14'0 0.0
2014-Apr-28 23:12N 31°39' E 121°14'0 0.0
2014-Apr-28 19:09N 31°39' E 121°14'0 0.1
2014-Apr-28 18:09N 31°39' E 121°14'0 0.0
2014-Apr-28 17:28N 31°39' E 121°14'0 0.0
2014-Apr-28 08:04N 31°39' E 121°14'0 0.0
2014-Apr-27 05:16N 31°39' E 121°14'0 0.0
2014-Apr-26 17:30N 31°39' E 121°14'0 0.0
2014-Apr-26 15:30N 31°39' E 121°14'0 0.0
2014-Apr-26 05:19N 31°39' E 121°14'0 0.0
2014-Apr-26 02:27N 31°39' E 121°14'0 0.0
2014-Apr-26 01:22N 31°39' E 121°14'0 0.0
2014-Apr-26 00:16N 31°39' E 121°14'0 0.2
2014-Apr-25 23:05N 31°39' E 121°14'0 0.0
2014-Apr-25 18:14N 31°39' E 121°14'0 0.2
2014-Apr-25 17:33N 31°39' E 121°14'0 0.0
2014-Apr-25 11:25N 31°39' E 121°14'0 0.0
2014-Apr-25 05:29N 31°39' E 121°14'0 0.0
2014-Apr-25 02:25N 31°39' E 121°14'0 0.0
2014-Apr-24 23:15N 31°39' E 121°14'0 0.0
2014-Apr-24 17:07N 31°39' E 121°14'0 0.2
2014-Apr-24 16:25N 31°39' E 121°14'0 0.0
2014-Apr-24 15:20N 31°39' E 121°14'0 0.0
2014-Apr-24 14:33N 31°39' E 121°14'0 0.0
2014-Apr-24 13:04N 31°39' E 121°14'0 0.0
2014-Apr-24 12:10N 31°39' E 121°14'0 0.0
2014-Apr-24 11:23N 31°39' E 121°14'  

Dump ship's entire track history